Time;durP1;ratioP1;P1;durP2;ratioP2;P2;SDS_P1;SDS_P2;PMS_P1;PMS_P2;Temp;Humidity;BMP_temperature;BMP_pressure;BME280_temperature;BME280_humidity;BME280_pressure;Samples;Min_cycle;Max_cycle;Signal;HPM_P1;HPM_P2
2023/03/03 00:02:24;;;;;;;29.55;19.80;;;5.40;99.90;;;;;;1905545;75;21597;-90
2023/03/03 00:05:17;;;;;;;30.08;21.05;;;5.50;99.90;;;;;;1927888;74;21541;-91
2023/03/03 00:08:09;;;;;;;28.87;20.40;;;5.60;99.90;;;;;;1848914;77;21200;-92
2023/03/03 00:11:02;;;;;;;28.30;19.70;;;5.50;99.90;;;;;;1905154;75;21237;-91
2023/03/03 00:13:55;;;;;;;27.58;18.12;;;5.50;99.90;;;;;;1905179;75;21200;-91
2023/03/03 00:16:48;;;;;;;26.75;18.42;;;5.30;99.90;;;;;;1904805;75;21173;-92
2023/03/03 00:19:40;;;;;;;27.75;19.35;;;5.20;99.90;;;;;;1907458;75;21110;-91
2023/03/03 00:22:34;;;;;;;26.12;18.32;;;5.40;99.90;;;;;;1869469;77;21169;-93
2023/03/03 00:25:33;;;;;;;30.62;19.32;;;5.20;99.90;;;;;;1904969;75;21201;-91
2023/03/03 00:28:28;;;;;;;30.57;21.37;;;5.10;99.90;;;;;;1905182;74;21253;-90
2023/03/03 00:31:21;;;;;;;32.93;22.17;;;5.00;99.90;;;;;;1905133;75;21103;-90
2023/03/03 00:34:21;;;;;;;30.62;20.85;;;5.00;99.90;;;;;;1905048;75;21140;-91
2023/03/03 00:37:22;;;;;;;30.20;20.70;;;4.90;99.90;;;;;;1905170;75;21136;-91
2023/03/03 00:40:22;;;;;;;31.97;21.60;;;5.00;99.90;;;;;;1904455;75;21618;-89
2023/03/03 00:43:19;;;;;;;32.53;22.25;;;5.00;99.90;;;;;;1904269;75;21102;-89
2023/03/03 00:46:12;;;;;;;29.98;20.62;;;4.90;99.90;;;;;;1904031;75;21554;-92
2023/03/03 00:49:07;;;;;;;32.85;21.85;;;4.90;99.90;;;;;;1904454;75;21168;-90
2023/03/03 00:51:58;;;;;;;31.48;22.13;;;4.90;99.90;;;;;;1904631;75;21103;-89
2023/03/03 00:54:50;;;;;;;32.48;22.50;;;4.80;99.90;;;;;;1924968;74;21122;-89
2023/03/03 00:57:43;;;;;;;32.48;22.52;;;4.80;99.90;;;;;;1921247;74;21063;-92
2023/03/03 01:00:34;;;;;;;29.67;20.40;;;4.70;99.90;;;;;;1904755;74;21103;-90
2023/03/03 01:03:27;;;;;;;31.50;20.72;;;4.70;99.90;;;;;;1904519;75;21152;-90
2023/03/03 01:06:18;;;;;;;31.60;21.60;;;4.80;99.90;;;;;;1904641;75;21549;-89
2023/03/03 01:09:10;;;;;;;30.68;20.80;;;4.70;99.90;;;;;;1851279;77;21122;-91
2023/03/03 01:12:01;;;;;;;32.23;21.82;;;4.70;99.90;;;;;;1837555;78;21143;-91
2023/03/03 01:14:54;;;;;;;33.90;21.85;;;4.60;99.90;;;;;;1906843;74;21136;-90
2023/03/03 01:17:45;;;;;;;31.15;22.35;;;4.60;99.90;;;;;;1906396;74;21090;-90
2023/03/03 01:20:36;;;;;;;31.82;21.30;;;4.50;99.90;;;;;;1919206;74;21143;-89
2023/03/03 01:23:28;;;;;;;30.50;20.60;;;4.50;99.90;;;;;;1855365;77;21189;-89
2023/03/03 01:26:20;;;;;;;31.90;20.65;;;4.50;99.90;;;;;;1843074;77;21221;-89
2023/03/03 01:29:12;;;;;;;30.12;20.97;;;4.50;99.90;;;;;;1942308;73;21200;-89
2023/03/03 01:32:03;;;;;;;29.40;20.05;;;4.40;99.90;;;;;;1943662;73;21390;-90
2023/03/03 01:34:54;;;;;;;29.25;19.80;;;4.40;99.90;;;;;;1944075;74;21150;-90
2023/03/03 01:37:46;;;;;;;29.60;21.35;;;4.40;99.90;;;;;;1921028;73;21094;-90
2023/03/03 01:40:38;;;;;;;31.37;21.97;;;4.40;99.90;;;;;;1915925;73;21093;-89
2023/03/03 01:43:31;;;;;;;31.97;21.77;;;4.50;99.90;;;;;;1848413;76;21189;-89
2023/03/03 01:46:57;;;;;;;29.42;20.70;;;4.50;99.90;;;;;;1917457;74;21179;-91
2023/03/03 01:49:53;;;;;;;32.53;21.60;;;4.40;99.90;;;;;;1903204;74;21118;-91
2023/03/03 01:52:49;;;;;;;36.42;22.82;;;4.40;99.90;;;;;;1918128;74;21106;-91
2023/03/03 01:55:43;;;;;;;30.85;20.72;;;4.40;99.90;;;;;;1897497;75;21063;-91
2023/03/03 01:58:37;;;;;;;29.85;20.43;;;4.40;99.90;;;;;;1926642;74;21126;-91
2023/03/03 02:01:31;;;;;;;29.02;20.27;;;4.40;99.90;;;;;;1904106;75;21332;-90
2023/03/03 02:04:23;;;;;;;32.88;22.37;;;4.40;99.90;;;;;;1904726;75;21096;-90
2023/03/03 02:07:16;;;;;;;31.15;21.33;;;4.40;99.90;;;;;;1904257;75;21166;-90
2023/03/03 02:10:12;;;;;;;30.68;21.00;;;4.30;99.90;;;;;;1904124;75;21095;-90
2023/03/03 02:13:04;;;;;;;35.40;22.87;;;4.30;99.90;;;;;;1904113;75;21103;-91
2023/03/03 02:15:55;;;;;;;32.75;21.77;;;4.30;99.90;;;;;;1904499;75;21095;-91
2023/03/03 02:18:47;;;;;;;33.65;21.70;;;4.40;99.90;;;;;;1921199;74;21072;-90
2023/03/03 02:21:39;;;;;;;33.80;21.42;;;4.40;99.90;;;;;;1906198;75;21052;-89
2023/03/03 02:24:34;;;;;;;35.90;22.10;;;4.30;99.90;;;;;;1904755;75;21106;-89
2023/03/03 02:27:29;;;;;;;38.75;23.77;;;4.40;99.90;;;;;;1905695;74;21059;-90
2023/03/03 02:30:22;;;;;;;34.75;21.07;;;4.30;99.90;;;;;;1945331;73;21221;-88
2023/03/03 02:33:14;;;;;;;32.73;22.73;;;4.20;99.90;;;;;;1924722;74;21173;-90
2023/03/03 02:36:06;;;;;;;33.83;22.42;;;4.20;99.90;;;;;;1911680;73;21095;-90
2023/03/03 02:39:09;;;;;;;35.40;22.93;;;4.20;99.90;;;;;;1909892;74;21128;-89
2023/03/03 02:42:03;;;;;;;34.05;22.52;;;4.20;99.90;;;;;;1905685;75;21179;-89
2023/03/03 02:44:57;;;;;;;34.18;22.77;;;4.20;99.90;;;;;;1911165;75;21149;-89
2023/03/03 02:47:52;;;;;;;36.08;22.58;;;4.10;99.90;;;;;;1916048;74;21161;-89
2023/03/03 02:50:43;;;;;;;37.10;23.32;;;4.10;99.90;;;;;;1916705;74;21150;-90
2023/03/03 02:53:35;;;;;;;35.30;22.60;;;4.10;99.90;;;;;;1913569;74;21184;-89
2023/03/03 02:56:28;;;;;;;33.38;22.05;;;4.10;99.90;;;;;;1908141;75;21047;-90
2023/03/03 02:59:20;;;;;;;33.45;22.50;;;4.10;99.90;;;;;;1907480;74;21088;-90
2023/03/03 03:02:12;;;;;;;35.45;22.45;;;4.10;99.90;;;;;;1905977;75;21066;-89
2023/03/03 03:05:05;;;;;;;35.38;22.45;;;4.00;99.90;;;;;;1910375;75;21103;-89
2023/03/03 03:07:56;;;;;;;34.05;21.73;;;4.00;99.90;;;;;;1910335;75;21122;-90
2023/03/03 03:10:47;;;;;;;36.45;22.82;;;4.00;99.90;;;;;;1911549;75;21062;-90
2023/03/03 03:13:38;;;;;;;34.15;22.80;;;4.00;99.90;;;;;;1914214;75;21067;-91
2023/03/03 03:16:31;;;;;;;35.48;23.50;;;4.10;99.90;;;;;;1910626;75;21177;-89
2023/03/03 03:19:22;;;;;;;34.33;22.02;;;4.10;99.90;;;;;;1858127;76;21179;-90
2023/03/03 03:22:13;;;;;;;33.95;21.82;;;4.10;99.90;;;;;;1928296;74;21052;-90
2023/03/03 03:25:05;;;;;;;35.05;21.97;;;4.00;99.90;;;;;;1930152;73;21165;-90
2023/03/03 03:27:57;;;;;;;33.48;22.15;;;3.90;99.90;;;;;;1932817;74;21168;-90
2023/03/03 03:30:50;;;;;;;36.00;23.98;;;4.00;99.90;;;;;;1911925;74;21186;-89
2023/03/03 03:33:42;;;;;;;33.78;21.93;;;3.90;99.90;;;;;;1911963;75;21101;-89
2023/03/03 03:36:34;;;;;;;32.10;22.37;;;4.00;99.90;;;;;;1912578;75;21216;-90
2023/03/03 03:39:26;;;;;;;34.43;22.80;;;4.00;99.90;;;;;;1903531;75;21159;-90
2023/03/03 03:42:18;;;;;;;32.80;22.52;;;4.00;99.90;;;;;;1909610;74;21106;-89
2023/03/03 03:45:14;;;;;;;36.33;22.42;;;4.10;99.90;;;;;;1937760;74;21106;-89
2023/03/03 03:48:07;;;;;;;35.13;22.58;;;4.10;99.90;;;;;;1904502;75;21168;-90
2023/03/03 03:50:59;;;;;;;34.90;22.90;;;4.00;99.90;;;;;;1904411;75;21140;-90
2023/03/03 03:53:54;;;;;;;32.28;22.67;;;4.10;99.90;;;;;;1904423;74;21310;-90
2023/03/03 03:56:46;;;;;;;34.38;22.65;;;4.10;99.90;;;;;;1903822;75;21113;-90
2023/03/03 03:59:37;;;;;;;34.40;22.85;;;4.10;99.90;;;;;;1904424;75;21131;-90
2023/03/03 04:02:29;;;;;;;35.75;22.35;;;4.10;99.90;;;;;;1904444;75;21166;-89
2023/03/03 04:05:22;;;;;;;35.52;22.95;;;4.10;99.90;;;;;;1904112;75;21055;-89
2023/03/03 04:08:14;;;;;;;37.85;24.32;;;4.10;99.90;;;;;;1904362;75;21111;-89
2023/03/03 04:11:06;;;;;;;33.83;23.42;;;4.10;99.90;;;;;;1861673;77;21193;-90
2023/03/03 04:13:58;;;;;;;36.08;23.45;;;4.10;99.90;;;;;;1904205;75;21051;-90
2023/03/03 04:16:49;;;;;;;34.92;22.98;;;4.10;99.90;;;;;;1904814;75;21163;-90
2023/03/03 04:19:41;;;;;;;31.62;21.07;;;4.10;99.90;;;;;;1905465;75;21098;-89
2023/03/03 04:22:34;;;;;;;37.05;23.87;;;4.10;99.90;;;;;;1861148;77;21554;-90
2023/03/03 04:25:26;;;;;;;35.38;22.48;;;4.00;99.90;;;;;;1904325;75;21114;-90
2023/03/03 04:28:18;;;;;;;39.50;23.32;;;4.00;99.90;;;;;;1856103;77;21144;-90
2023/03/03 04:31:10;;;;;;;32.83;22.45;;;4.10;99.90;;;;;;1859100;77;21194;-89
2023/03/03 04:34:02;;;;;;;33.05;21.30;;;4.00;99.90;;;;;;1904273;75;21107;-90
2023/03/03 04:36:54;;;;;;;35.10;23.35;;;4.10;99.90;;;;;;1904256;75;21121;-90
2023/03/03 04:39:45;;;;;;;33.55;22.80;;;4.10;99.90;;;;;;1904728;75;21668;-90
2023/03/03 04:42:37;;;;;;;35.45;23.42;;;4.10;99.90;;;;;;1859727;77;21236;-89
2023/03/03 04:45:29;;;;;;;36.50;24.43;;;4.10;99.90;;;;;;1927473;74;21245;-90
2023/03/03 04:48:21;;;;;;;34.78;22.98;;;4.10;99.90;;;;;;1904241;75;21105;-90
2023/03/03 04:51:15;;;;;;;34.65;23.25;;;4.10;99.90;;;;;;1903952;75;21063;-91
2023/03/03 04:54:07;;;;;;;37.13;23.52;;;4.20;99.90;;;;;;1904811;74;21204;-90
2023/03/03 04:57:01;;;;;;;34.00;21.75;;;4.20;99.90;;;;;;1904545;75;21118;-90
2023/03/03 04:59:53;;;;;;;32.60;22.10;;;4.10;99.90;;;;;;1904842;75;21072;-91
2023/03/03 05:02:46;;;;;;;33.75;22.82;;;4.10;99.90;;;;;;1904375;75;21635;-88
2023/03/03 05:05:37;;;;;;;33.92;23.00;;;4.20;99.90;;;;;;1905616;75;21044;-89
2023/03/03 05:08:29;;;;;;;36.28;23.65;;;4.20;99.90;;;;;;1904648;75;21099;-89
2023/03/03 05:11:27;;;;;;;35.92;23.20;;;4.20;99.90;;;;;;1904252;75;21120;-89
2023/03/03 05:14:17;;;;;;;;;;;4.20;99.90;;;;;;1907902;75;21079;-91
2023/03/03 05:17:09;;;;;;;34.20;22.93;;;4.20;99.90;;;;;;1904031;75;20176;-91
2023/03/03 05:20:04;;;;;;;35.10;22.55;;;4.10;99.90;;;;;;1903759;75;21176;-90
2023/03/03 05:22:56;;;;;;;36.77;22.87;;;4.10;99.90;;;;;;1903658;75;21088;-90
2023/03/03 05:25:48;;;;;;;34.38;23.38;;;4.20;99.90;;;;;;1903986;74;21110;-89
2023/03/03 05:28:39;;;;;;;33.05;22.77;;;4.40;99.90;;;;;;1903837;75;21184;-90
2023/03/03 05:31:31;;;;;;;34.78;22.95;;;4.30;99.90;;;;;;1904090;74;21126;-90
2023/03/03 05:34:22;;;;;;;33.50;22.80;;;4.30;99.90;;;;;;1900500;74;21628;-90
2023/03/03 05:37:14;;;;;;;35.75;23.45;;;4.30;99.90;;;;;;1906064;75;21076;-90
2023/03/03 05:40:07;;;;;;;34.10;22.95;;;4.30;99.90;;;;;;1818225;77;21111;-90
2023/03/03 05:42:59;;;;;;;34.83;23.40;;;4.30;99.90;;;;;;1808842;79;21075;-89
2023/03/03 05:45:55;;;;;;;34.43;22.48;;;4.30;99.90;;;;;;1890288;75;21181;-90
2023/03/03 05:51:28;;;;;;;34.88;23.42;;;4.50;99.90;;;;;;1975777;72;22326;-89
2023/03/03 05:54:19;;;;;;;32.53;22.77;;;4.40;99.90;;;;;;1917243;75;21114;-90
2023/03/03 05:57:11;;;;;;;33.48;22.67;;;4.40;99.90;;;;;;1940513;73;21106;-90
2023/03/03 06:00:03;;;;;;;34.50;22.87;;;4.40;99.90;;;;;;1858230;76;21188;-91
2023/03/03 06:02:55;;;;;;;34.18;22.90;;;4.30;99.90;;;;;;1893141;75;21109;-91
2023/03/03 06:05:47;;;;;;;35.15;23.40;;;4.30;99.90;;;;;;1917239;75;21156;-92
2023/03/03 06:08:40;;;;;;;36.00;24.65;;;4.40;99.90;;;;;;1917942;75;21114;-91
2023/03/03 06:11:31;;;;;;;33.40;23.40;;;4.50;99.90;;;;;;1917998;75;21101;-91
2023/03/03 06:14:24;;;;;;;33.45;22.62;;;4.40;99.90;;;;;;1917153;75;21062;-92
2023/03/03 06:17:17;;;;;;;33.90;23.45;;;4.40;99.90;;;;;;1917156;75;21126;-89
2023/03/03 06:20:11;;;;;;;36.35;22.90;;;4.40;99.90;;;;;;1917249;75;21168;-90
2023/03/03 06:23:14;;;;;;;34.58;23.40;;;4.40;99.90;;;;;;1917584;75;21179;-90
2023/03/03 06:26:06;;;;;;;36.10;23.55;;;4.50;99.90;;;;;;1917656;75;21118;-90
2023/03/03 06:28:58;;;;;;;35.25;23.77;;;4.50;99.90;;;;;;1917459;75;21121;-90
2023/03/03 06:31:50;;;;;;;36.08;24.05;;;4.70;99.90;;;;;;1865347;76;21176;-91
2023/03/03 06:34:42;;;;;;;35.50;24.23;;;4.70;99.90;;;;;;1917626;75;21094;-90
2023/03/03 06:37:35;;;;;;;33.90;23.45;;;4.90;99.90;;;;;;1940177;73;21105;-91
2023/03/03 06:40:26;;;;;;;33.23;22.02;;;4.70;99.90;;;;;;1917371;75;21095;-89
2023/03/03 06:43:19;;;;;;;36.03;23.70;;;4.70;99.90;;;;;;1917111;75;21168;-92
2023/03/03 06:46:12;;;;;;;35.78;24.02;;;4.70;99.90;;;;;;1917213;75;21333;-91
2023/03/03 06:49:03;;;;;;;35.00;23.65;;;4.70;99.90;;;;;;1903429;75;21139;-90
2023/03/03 06:51:55;;;;;;;34.03;23.80;;;4.70;99.90;;;;;;1930425;74;21183;-89
2023/03/03 06:54:58;;;;;;;35.43;24.77;;;4.70;99.90;;;;;;1933593;74;21082;-90
2023/03/03 06:57:49;;;;;;;33.38;22.77;;;4.80;99.90;;;;;;1934419;74;21097;-89
2023/03/03 07:00:43;;;;;;;38.13;24.40;;;4.80;99.90;;;;;;1933776;74;21102;-90
2023/03/03 07:03:35;;;;;;;38.05;24.52;;;4.80;99.90;;;;;;1932764;74;21304;-92
2023/03/03 07:06:28;;;;;;;39.13;25.25;;;4.90;99.90;;;;;;1933154;74;21155;-91
2023/03/03 07:09:23;;;;;;;36.10;24.18;;;4.90;99.90;;;;;;1932965;74;21183;-90
2023/03/03 07:12:19;;;;;;;38.67;25.72;;;5.00;99.90;;;;;;1949087;73;21610;-90
2023/03/03 07:15:19;;;;;;;39.65;24.92;;;5.10;99.90;;;;;;1955776;73;21097;-90
2023/03/03 07:18:44;;;;;;;37.83;23.62;;;5.20;99.90;;;;;;1889381;76;21146;-90
2023/03/03 07:21:38;;;;;;;39.42;24.85;;;5.20;99.90;;;;;;1934622;73;21184;-92
2023/03/03 07:24:31;;;;;;;36.23;23.85;;;5.20;99.90;;;;;;1933470;74;21081;-92
2023/03/03 07:27:29;;;;;;;41.02;24.98;;;5.20;99.90;;;;;;1889618;76;21133;-90
2023/03/03 07:30:26;;;;;;;35.15;24.32;;;5.30;99.90;;;;;;1932811;74;21134;-89
2023/03/03 07:33:25;;;;;;;35.50;23.92;;;5.20;99.90;;;;;;1875038;76;21137;-90
2023/03/03 07:36:28;;;;;;;35.80;23.75;;;5.30;99.90;;;;;;1869326;76;21133;-90
2023/03/03 07:39:28;;;;;;;36.85;24.07;;;5.30;99.90;;;;;;1944017;73;21116;-90
2023/03/03 07:42:27;;;;;;;37.75;25.12;;;5.40;99.90;;;;;;1938620;73;21096;-91
2023/03/03 07:45:31;;;;;;;35.65;23.27;;;5.50;99.90;;;;;;1932948;74;21189;-91
2023/03/03 07:48:29;;;;;;;34.45;23.83;;;5.50;99.90;;;;;;1876284;76;21154;-90
2023/03/03 07:51:26;;;;;;;38.50;24.25;;;5.50;99.90;;;;;;1931605;74;21187;-90
2023/03/03 07:54:32;;;;;;;36.75;24.37;;;5.50;99.90;;;;;;1926663;74;21043;-90
2023/03/03 07:57:27;;;;;;;36.95;23.50;;;5.60;99.90;;;;;;1926380;74;21087;-91
2023/03/03 08:00:58;;;;;;;34.38;23.77;;;5.50;99.90;;;;;;1926519;74;21066;-91
2023/03/03 08:03:51;;;;;;;37.58;25.05;;;5.60;99.90;;;;;;1926244;74;21148;-90
2023/03/03 08:06:54;;;;;;;33.73;23.60;;;5.60;99.90;;;;;;1926469;74;21121;-90
2023/03/03 08:09:52;;;;;;;36.85;24.02;;;5.50;99.90;;;;;;1917995;74;21102;-91
2023/03/03 08:12:46;;;;;;;36.60;24.20;;;5.60;99.90;;;;;;1941346;73;21156;-90
2023/03/03 08:15:40;;;;;;;38.85;24.63;;;5.60;99.90;;;;;;1879438;76;21127;-91
2023/03/03 08:18:38;;;;;;;37.75;23.80;;;5.80;99.90;;;;;;1916490;75;21085;-89
2023/03/03 08:21:31;;;;;;;34.30;24.18;;;5.80;99.90;;;;;;1849053;76;21601;-90
2023/03/03 08:24:22;;;;;;;39.58;25.37;;;5.80;99.90;;;;;;1918138;75;21091;-91
2023/03/03 08:27:14;;;;;;;35.63;24.37;;;5.80;99.90;;;;;;1917539;75;21088;-92
2023/03/03 08:30:07;;;;;;;35.23;24.07;;;5.90;99.90;;;;;;1916694;75;21140;-91
2023/03/03 08:33:00;;;;;;;36.68;25.17;;;5.90;99.90;;;;;;1916201;75;21106;-90
2023/03/03 08:35:52;;;;;;;35.17;25.08;;;6.00;99.90;;;;;;1922157;73;21160;-90
2023/03/03 08:38:43;;;;;;;43.95;27.00;;;6.10;99.90;;;;;;1927160;73;21059;-90
2023/03/03 08:41:37;;;;;;;40.25;26.55;;;6.10;99.90;;;;;;1916446;75;21172;-90
2023/03/03 08:44:30;;;;;;;37.83;25.00;;;6.20;99.90;;;;;;1916776;75;21098;-92
2023/03/03 08:47:22;;;;;;;39.40;25.20;;;6.20;99.90;;;;;;1924631;73;21349;-91
2023/03/03 08:52:55;;;;;;;42.65;26.75;;;6.40;99.90;;;;;;1941155;72;22690;-91
2023/03/03 08:55:48;;;;;;;37.42;25.02;;;6.40;99.90;;;;;;1884736;76;21102;-91
2023/03/03 08:58:40;;;;;;;38.92;25.60;;;6.40;99.90;;;;;;1891487;75;21129;-90
2023/03/03 09:01:35;;;;;;;37.05;26.02;;;6.40;99.90;;;;;;1895617;75;21095;-90
2023/03/03 09:04:26;;;;;;;35.58;24.95;;;6.50;99.90;;;;;;1898195;75;21103;-90
2023/03/03 09:07:18;;;;;;;35.85;25.55;;;6.60;99.90;;;;;;1897742;75;21115;-90
2023/03/03 09:10:31;;;;;;;38.25;26.62;;;6.50;99.90;;;;;;1895830;75;21095;-90
2023/03/03 09:13:24;;;;;;;38.23;26.25;;;6.40;99.90;;;;;;1902956;75;21575;-90
2023/03/03 09:16:23;;;;;;;39.13;26.25;;;6.40;99.90;;;;;;1884277;76;21163;-91
2023/03/03 09:19:25;;;;;;;41.15;26.65;;;6.40;99.90;;;;;;1833478;77;21578;-90
2023/03/03 09:22:22;;;;;;;40.85;25.85;;;6.50;99.90;;;;;;1884799;76;21080;-90
2023/03/03 09:25:21;;;;;;;38.20;26.25;;;6.70;99.90;;;;;;1899630;75;21109;-90
2023/03/03 09:28:33;;;;;;;37.85;24.72;;;6.60;99.90;;;;;;1917048;75;21092;-89
2023/03/03 09:31:30;;;;;;;37.65;24.63;;;6.80;99.90;;;;;;1890575;75;21114;-90
2023/03/03 09:34:27;;;;;;;41.80;27.58;;;6.90;99.90;;;;;;1907213;75;21098;-90
2023/03/03 09:37:24;;;;;;;40.35;26.33;;;6.90;99.90;;;;;;1906916;75;21078;-89
2023/03/03 09:40:19;;;;;;;36.77;25.97;;;6.90;99.90;;;;;;1904943;75;21087;-90
2023/03/03 09:43:14;;;;;;;39.55;26.68;;;7.00;99.90;;;;;;1917369;75;21546;-90
2023/03/03 09:46:10;;;;;;;38.42;26.50;;;7.00;99.90;;;;;;1884518;76;21142;-89
2023/03/03 09:52:23;;;;;;;41.58;27.37;;;7.10;99.90;;;;;;1950414;72;22199;-90
2023/03/03 09:55:29;;;;;;;39.18;27.52;;;7.30;99.90;;;;;;1918121;75;21145;-90
2023/03/03 09:58:30;;;;;;;41.58;26.60;;;7.30;99.90;;;;;;1943366;73;21105;-89
2023/03/03 10:05:20;;;;;;;39.50;25.43;;;7.00;99.90;;;;;;2052659;68;22139;-90
2023/03/03 10:08:37;;;;;;;39.58;26.73;;;7.20;99.90;;;;;;2028140;70;21054;-91
2023/03/03 10:11:55;;;;;;;39.48;25.92;;;7.30;99.90;;;;;;2009978;70;21082;-90
2023/03/03 10:15:01;;;;;;;41.53;27.13;;;7.40;99.90;;;;;;2023292;70;21093;-91
2023/03/03 10:17:53;;;;;;;41.08;27.15;;;7.40;99.90;;;;;;2002858;70;21118;-92
2023/03/03 10:20:57;;;;;;;45.33;27.30;;;7.40;99.90;;;;;;2036160;70;21027;-90
2023/03/03 10:24:08;;;;;;;44.93;27.93;;;7.40;99.90;;;;;;2016357;70;21085;-88
2023/03/03 10:27:15;;;;;;;37.67;26.68;;;7.50;99.90;;;;;;2000369;72;21143;-89
2023/03/03 10:30:11;;;;;;;30.48;19.90;;;7.60;99.90;;;;;;1998708;72;21155;-89
2023/03/03 10:33:06;;;;;;;40.00;27.52;;;7.80;99.90;;;;;;1998427;72;21211;-89
2023/03/03 10:39:23;;;;;;;38.02;27.77;;;7.80;99.90;;;;;;1937878;72;22523;-91
2023/03/03 10:42:34;;;;;;;41.58;28.25;;;7.90;99.90;;;;;;1894538;75;21181;-89
2023/03/03 11:02:54;;;;;;;;;;;;;;;;;;;;;
2023/03/03 11:08:50;;;;;;;39.67;28.27;;;8.30;99.90;;;;;;1962628;72;22167;-90
2023/03/03 11:11:44;;;;;;;40.75;27.40;;;8.30;99.90;;;;;;1916949;75;21224;-91
2023/03/03 11:14:40;;;;;;;41.73;28.02;;;8.20;99.90;;;;;;1887592;75;21075;-90
2023/03/03 11:17:37;;;;;;;41.02;26.85;;;8.20;99.90;;;;;;1894320;75;21107;-89
2023/03/03 11:20:45;;;;;;;43.30;29.72;;;8.10;99.90;;;;;;1883629;76;21122;-92
2023/03/03 11:27:14;;;;;;;38.67;26.20;;;7.90;99.90;;;;;;1959400;72;22224;-91
2023/03/03 11:30:09;;;;;;;;;;;7.90;99.90;;;;;;1908694;74;21170;-92
2023/03/03 11:33:04;;;;;;;37.67;26.75;;;7.70;99.90;;;;;;1905841;75;20243;-91
2023/03/03 11:36:00;;;;;;;37.05;24.50;;;7.60;99.90;;;;;;1905092;75;21165;-90
2023/03/03 11:38:58;;;;;;;37.98;24.55;;;7.50;99.90;;;;;;1904663;75;21157;-90
2023/03/03 11:41:56;;;;;;;43.13;28.95;;;7.40;99.90;;;;;;1904539;75;21154;-90
2023/03/03 11:47:44;;;;;;;38.30;23.60;;;7.30;99.90;;;;;;1975624;72;22178;-90
2023/03/03 11:50:41;;;;;;;39.75;27.98;;;7.40;99.90;;;;;;1920091;73;21098;-91
2023/03/03 11:53:42;;;;;;;42.43;27.27;;;7.50;99.90;;;;;;1916756;75;21094;-89
2023/03/03 11:56:40;;;;;;;40.75;27.00;;;7.60;99.90;;;;;;1917262;75;21109;-90
2023/03/03 11:59:50;;;;;;;39.73;26.68;;;7.60;99.90;;;;;;1918941;73;21218;-90
2023/03/03 12:02:56;;;;;;;41.13;27.15;;;7.70;99.90;;;;;;1917238;75;21111;-90
2023/03/03 12:06:00;;;;;;;40.30;27.52;;;7.80;99.90;;;;;;1917215;75;21216;-89
2023/03/03 12:09:21;;;;;;;35.55;24.92;;;7.90;99.90;;;;;;1887210;75;21591;-90
2023/03/03 12:12:17;;;;;;;30.15;19.95;;;7.80;99.90;;;;;;1917262;75;21086;-90
2023/03/03 12:15:16;;;;;;;38.15;26.05;;;7.80;99.90;;;;;;1917640;75;21124;-91
2023/03/03 12:18:18;;;;;;;38.42;26.70;;;7.60;99.90;;;;;;1917496;75;21102;-89
2023/03/03 12:21:21;;;;;;;42.45;27.73;;;7.70;99.90;;;;;;1917751;75;21183;-90
2023/03/03 12:24:23;;;;;;;39.67;26.77;;;7.60;99.90;;;;;;1930051;73;21126;-91
2023/03/03 12:27:28;;;;;;;40.88;27.87;;;7.80;99.90;;;;;;1940657;73;21054;-91
2023/03/03 12:30:29;;;;;;;40.78;27.85;;;7.70;99.90;;;;;;1917535;75;21149;-89
2023/03/03 12:33:27;;;;;;;39.85;27.50;;;7.80;99.90;;;;;;1918092;75;21147;-90
2023/03/03 12:36:34;;;;;;;43.15;27.67;;;8.00;99.90;;;;;;1917384;75;21765;-89
2023/03/03 12:39:39;;;;;;;39.42;27.80;;;8.00;99.90;;;;;;1887987;75;21085;-89
2023/03/03 12:46:13;;;;;;;37.53;25.35;;;7.80;99.90;;;;;;1927890;74;23180;-90
2023/03/03 12:49:06;;;;;;;40.15;26.00;;;7.80;99.90;;;;;;1909336;75;21050;-89
2023/03/03 12:52:08;;;;;;;33.35;22.25;;;7.80;99.90;;;;;;1946831;73;21195;-92
2023/03/03 12:55:07;;;;;;;34.20;22.62;;;7.80;99.90;;;;;;1900841;75;21101;-88
2023/03/03 12:58:02;;;;;;;39.33;27.65;;;7.70;99.90;;;;;;1898865;75;21179;-89
2023/03/03 13:00:57;;;;;;;40.78;25.30;;;7.70;99.90;;;;;;1937086;73;21204;-90
2023/03/03 13:03:56;;;;;;;34.40;21.10;;;7.70;99.90;;;;;;1928832;74;21118;-90
2023/03/03 13:06:51;;;;;;;40.25;26.55;;;7.70;99.90;;;;;;1923925;74;21102;-90
2023/03/03 13:09:52;;;;;;;40.45;27.52;;;7.60;99.90;;;;;;1900641;75;21113;-90
2023/03/03 13:12:49;;;;;;;37.55;23.07;;;7.60;99.90;;;;;;1900097;75;21491;-89
2023/03/03 13:15:44;;;;;;;40.65;25.00;;;7.70;99.90;;;;;;1935028;73;21141;-89
2023/03/03 13:18:57;;;;;;;34.00;20.10;;;7.60;99.90;;;;;;1922122;75;21129;-90
2023/03/03 13:22:00;;;;;;;36.20;24.10;;;7.60;99.90;;;;;;1891307;75;21093;-90
2023/03/03 13:25:00;;;;;;;42.55;27.07;;;7.60;99.90;;;;;;1922734;74;21109;-89
2023/03/03 13:27:54;;;;;;;39.50;27.77;;;7.50;99.90;;;;;;1940659;74;21173;-89
2023/03/03 13:30:49;;;;;;;40.03;22.50;;;7.60;99.90;;;;;;1929770;73;21223;-89
2023/03/03 13:33:52;;;;;;;40.28;27.80;;;7.60;99.90;;;;;;1949809;73;21090;-89
2023/03/03 13:36:49;;;;;;;41.20;26.80;;;7.60;99.90;;;;;;1949842;73;21137;-89
2023/03/03 13:39:45;;;;;;;37.13;25.32;;;7.60;99.90;;;;;;1938612;73;21634;-89
2023/03/03 13:42:43;;;;;;;46.35;26.40;;;7.50;99.90;;;;;;1889877;75;21135;-90
2023/03/03 13:45:41;;;;;;;38.53;25.68;;;7.70;99.90;;;;;;1930596;73;21149;-90
2023/03/03 13:49:23;;;;;;;41.42;27.17;;;7.60;99.90;;;;;;1931603;73;21082;-90
2023/03/03 13:52:17;;;;;;;40.12;24.45;;;7.70;99.90;;;;;;1890216;75;21142;-89
2023/03/03 13:55:19;;;;;;;40.73;27.32;;;7.70;99.90;;;;;;1900626;75;21146;-90
2023/03/03 14:04:41;;;;;;;38.83;26.30;;;7.80;99.90;;;;;;1990355;71;22229;-89
2023/03/03 14:07:36;;;;;;;34.87;22.83;;;7.90;99.90;;;;;;2032091;70;21634;-90
2023/03/03 14:10:34;;;;;;;38.95;25.97;;;7.80;99.90;;;;;;2032106;70;21058;-90
2023/03/03 14:13:30;;;;;;;46.37;29.18;;;7.90;99.90;;;;;;2031670;70;21084;-90
2023/03/03 14:16:27;;;;;;;36.63;21.97;;;7.90;99.90;;;;;;2026232;70;21084;-90
2023/03/03 14:19:22;;;;;;;40.78;27.62;;;7.90;99.90;;;;;;2020517;70;21308;-90
2023/03/03 14:22:23;;;;;;;38.48;23.90;;;7.90;99.90;;;;;;2032325;70;21082;-90
2023/03/03 14:25:16;;;;;;;39.55;25.88;;;8.10;99.90;;;;;;2013152;70;21038;-91
2023/03/03 14:28:12;;;;;;;39.48;26.85;;;8.10;99.90;;;;;;2008685;70;21093;-90
2023/03/03 14:31:12;;;;;;;35.23;23.55;;;8.30;99.90;;;;;;1998610;70;21030;-91
2023/03/03 14:34:07;;;;;;;36.60;21.30;;;8.20;99.90;;;;;;1998386;70;21106;-89
2023/03/03 14:37:03;;;;;;;38.17;26.77;;;8.20;99.90;;;;;;2032567;70;21125;-89
2023/03/03 14:40:17;;;;;;;34.85;21.50;;;8.20;99.90;;;;;;1995485;72;21037;-90
2023/03/03 14:43:22;;;;;;;35.63;24.40;;;8.20;99.90;;;;;;1995067;72;21101;-91
2023/03/03 14:46:35;;;;;;;34.95;23.20;;;8.20;99.90;;;;;;1995655;72;21069;-91
2023/03/03 14:49:32;;;;;;;39.65;27.17;;;8.30;99.90;;;;;;2011194;70;21065;-89
2023/03/03 14:52:34;;;;;;;40.90;28.17;;;8.20;99.90;;;;;;2032470;70;21022;-91
2023/03/03 14:55:36;;;;;;;40.12;27.50;;;8.30;99.90;;;;;;2031839;70;21045;-90
2023/03/03 14:58:40;;;;;;;39.53;26.50;;;8.20;99.90;;;;;;2027724;70;21144;-90
2023/03/03 15:01:36;;;;;;;40.58;27.87;;;8.30;99.90;;;;;;1996598;70;21080;-90
2023/03/03 15:04:30;;;;;;;39.15;26.62;;;8.40;99.90;;;;;;2032247;69;21088;-90
2023/03/03 15:07:29;;;;;;;38.00;26.75;;;8.50;99.90;;;;;;2032091;70;21078;-90
2023/03/03 15:10:34;;;;;;;41.88;26.65;;;8.50;99.90;;;;;;2032198;70;21509;-90
2023/03/03 15:13:35;;;;;;;36.68;25.82;;;8.40;99.90;;;;;;2032256;70;21043;-90
2023/03/03 15:16:33;;;;;;;34.67;23.22;;;8.30;99.90;;;;;;2024371;70;21065;-88
2023/03/03 15:19:50;;;;;;;36.45;24.20;;;8.30;99.90;;;;;;1988021;70;21014;-90
2023/03/03 15:22:48;;;;;;;41.10;25.92;;;8.20;99.90;;;;;;2022805;70;21069;-91
2023/03/03 15:25:40;;;;;;;;;;;8.20;99.90;;;;;;2034849;70;21014;-91
2023/03/03 15:28:42;;;;;;;32.70;23.18;;;8.10;99.90;;;;;;2031166;70;20168;-90
2023/03/03 15:31:41;;;;;;;37.42;25.52;;;8.20;99.90;;;;;;1994812;72;21085;-89
2023/03/03 15:34:43;;;;;;;36.58;24.40;;;8.20;99.90;;;;;;2030653;70;21073;-90
2023/03/03 15:37:41;;;;;;;29.05;18.32;;;8.10;99.90;;;;;;2031329;70;21073;-90
2023/03/03 15:40:41;;;;;;;39.42;26.33;;;8.10;99.90;;;;;;2004728;70;21077;-90
2023/03/03 15:44:02;;;;;;;37.03;21.75;;;8.10;99.90;;;;;;2001562;70;21477;-90
2023/03/03 15:47:07;;;;;;;37.70;24.92;;;8.00;99.90;;;;;;2031481;70;21085;-89
2023/03/03 15:53:27;;;;;;;39.25;25.70;;;8.00;99.90;;;;;;1975808;72;22167;-91
2023/03/03 15:56:32;;;;;;;38.10;25.80;;;8.00;99.90;;;;;;1905368;75;21115;-90
2023/03/03 16:15:53;;;;;;;39.45;29.35;;;7.90;99.90;;;;;;1931656;72;28011;-91
2023/03/03 16:18:52;;;;;;;39.18;26.50;;;8.00;99.90;;;;;;1896574;75;21129;-91
2023/03/03 16:22:01;;;;;;;38.85;24.12;;;8.00;99.90;;;;;;1873347;76;21164;-90